sensor_id;sensor_type;location;lat;lon;timestamp;pressure;altitude;pressure_sealevel;temperature;humidity
48089;BME280;33867;50.314;7.802;2023-03-25T00:02:03;99486.31;;;7.47;nan
48089;BME280;33867;50.314;7.802;2023-03-25T00:05:23;99479.53;;;7.43;nan
48089;BME280;33867;50.314;7.802;2023-03-25T00:08:42;99495.59;;;7.43;nan
48089;BME280;33867;50.314;7.802;2023-03-25T00:12:01;99480.38;;;7.44;nan
48089;BME280;33867;50.314;7.802;2023-03-25T00:15:21;99485.34;;;7.39;nan
48089;BME280;33867;50.314;7.802;2023-03-25T00:18:40;99473.34;;;7.33;nan
48089;BME280;33867;50.314;7.802;2023-03-25T00:21:59;99476.47;;;7.28;nan
48089;BME280;33867;50.314;7.802;2023-03-25T00:25:18;99474.50;;;7.30;nan
48089;BME280;33867;50.314;7.802;2023-03-25T00:28:38;99478.03;;;7.21;nan
48089;BME280;33867;50.314;7.802;2023-03-25T00:31:59;99473.81;;;7.19;nan
48089;BME280;33867;50.314;7.802;2023-03-25T00:35:19;99473.56;;;7.12;nan
48089;BME280;33867;50.314;7.802;2023-03-25T00:38:39;99478.47;;;7.17;nan
48089;BME280;33867;50.314;7.802;2023-03-25T00:41:59;99482.28;;;7.24;nan
48089;BME280;33867;50.314;7.802;2023-03-25T00:45:20;99495.75;;;7.42;nan
48089;BME280;33867;50.314;7.802;2023-03-25T00:48:39;99473.50;;;7.31;nan
48089;BME280;33867;50.314;7.802;2023-03-25T00:51:59;99465.63;;;7.30;nan
48089;BME280;33867;50.314;7.802;2023-03-25T00:55:20;99487.72;;;7.32;nan
48089;BME280;33867;50.314;7.802;2023-03-25T00:58:39;99473.22;;;7.35;nan
48089;BME280;33867;50.314;7.802;2023-03-25T01:01:58;99469.81;;;7.42;nan
48089;BME280;33867;50.314;7.802;2023-03-25T01:05:17;99469.66;;;7.44;nan
48089;BME280;33867;50.314;7.802;2023-03-25T01:08:40;99463.03;;;7.48;nan
48089;BME280;33867;50.314;7.802;2023-03-25T01:11:59;99460.75;;;7.53;nan
48089;BME280;33867;50.314;7.802;2023-03-25T01:15:18;99458.16;;;7.71;nan
48089;BME280;33867;50.314;7.802;2023-03-25T01:18:39;99456.41;;;7.79;nan
48089;BME280;33867;50.314;7.802;2023-03-25T01:21:59;99445.69;;;7.79;nan
48089;BME280;33867;50.314;7.802;2023-03-25T01:25:20;99436.28;;;7.75;nan
48089;BME280;33867;50.314;7.802;2023-03-25T01:28:40;99438.81;;;7.77;nan
48089;BME280;33867;50.314;7.802;2023-03-25T01:31:59;99447.91;;;7.94;nan
48089;BME280;33867;50.314;7.802;2023-03-25T01:35:18;99436.94;;;7.87;nan
48089;BME280;33867;50.314;7.802;2023-03-25T01:38:40;99441.44;;;7.86;nan
48089;BME280;33867;50.314;7.802;2023-03-25T01:41:59;99441.63;;;8.03;nan
48089;BME280;33867;50.314;7.802;2023-03-25T01:45:25;99439.94;;;8.02;nan
48089;BME280;33867;50.314;7.802;2023-03-25T01:48:45;99433.00;;;8.09;nan
48089;BME280;33867;50.314;7.802;2023-03-25T01:52:11;99421.66;;;7.70;nan
48089;BME280;33867;50.314;7.802;2023-03-25T01:55:33;99406.25;;;7.72;nan
48089;BME280;33867;50.314;7.802;2023-03-25T01:58:55;99413.34;;;7.90;nan
48089;BME280;33867;50.314;7.802;2023-03-25T02:02:15;99399.56;;;7.85;nan
48089;BME280;33867;50.314;7.802;2023-03-25T02:05:43;99397.56;;;7.87;nan
48089;BME280;33867;50.314;7.802;2023-03-25T02:09:04;99403.53;;;7.81;nan
48089;BME280;33867;50.314;7.802;2023-03-25T02:12:27;99406.66;;;7.77;nan
48089;BME280;33867;50.314;7.802;2023-03-25T02:19:45;99409.78;;;7.72;nan
48089;BME280;33867;50.314;7.802;2023-03-25T02:27:21;99404.75;;;7.87;nan
48089;BME280;33867;50.314;7.802;2023-03-25T02:34:47;99401.06;;;7.70;nan
48089;BME280;33867;50.314;7.802;2023-03-25T02:45:29;99394.44;;;7.92;nan
48089;BME280;33867;50.314;7.802;2023-03-25T02:48:59;99394.50;;;7.82;nan
48089;BME280;33867;50.314;7.802;2023-03-25T02:52:27;99393.03;;;7.70;nan
48089;BME280;33867;50.314;7.802;2023-03-25T02:55:48;99395.81;;;7.69;nan
48089;BME280;33867;50.314;7.802;2023-03-25T02:59:10;99390.47;;;7.69;nan
48089;BME280;33867;50.314;7.802;2023-03-25T03:02:34;99380.66;;;7.59;nan
48089;BME280;33867;50.314;7.802;2023-03-25T03:06:01;99381.50;;;7.60;nan
48089;BME280;33867;50.314;7.802;2023-03-25T03:09:33;99371.59;;;7.70;nan
48089;BME280;33867;50.314;7.802;2023-03-25T03:13:13;99378.06;;;7.68;nan
48089;BME280;33867;50.314;7.802;2023-03-25T03:20:53;99373.69;;;7.67;nan
48089;BME280;33867;50.314;7.802;2023-03-25T03:24:34;99377.22;;;7.67;nan
48089;BME280;33867;50.314;7.802;2023-03-25T03:28:04;99378.97;;;7.58;nan
48089;BME280;33867;50.314;7.802;2023-03-25T03:31:35;99380.09;;;7.56;nan
48089;BME280;33867;50.314;7.802;2023-03-25T03:35:07;99391.25;;;7.51;nan
48089;BME280;33867;50.314;7.802;2023-03-25T03:38:31;99384.22;;;7.50;nan
48089;BME280;33867;50.314;7.802;2023-03-25T03:42:00;99379.88;;;7.49;nan
48089;BME280;33867;50.314;7.802;2023-03-25T03:45:33;99382.97;;;7.45;nan
48089;BME280;33867;50.314;7.802;2023-03-25T03:48:56;99390.22;;;7.35;nan
48089;BME280;33867;50.314;7.802;2023-03-25T03:52:20;99393.75;;;7.35;nan
48089;BME280;33867;50.314;7.802;2023-03-25T03:55:44;99414.44;;;7.33;nan
48089;BME280;33867;50.314;7.802;2023-03-25T03:59:14;99415.44;;;7.32;nan
48089;BME280;33867;50.314;7.802;2023-03-25T04:06:07;99420.63;;;7.33;nan
48089;BME280;33867;50.314;7.802;2023-03-25T04:13:14;99420.78;;;7.32;nan
48089;BME280;33867;50.314;7.802;2023-03-25T04:16:35;99419.25;;;7.29;nan
48089;BME280;33867;50.314;7.802;2023-03-25T04:19:55;99424.47;;;7.31;nan
48089;BME280;33867;50.314;7.802;2023-03-25T04:23:14;99422.06;;;7.28;nan
48089;BME280;33867;50.314;7.802;2023-03-25T04:26:33;99421.38;;;7.36;nan
48089;BME280;33867;50.314;7.802;2023-03-25T04:29:56;99430.09;;;7.38;nan
48089;BME280;33867;50.314;7.802;2023-03-25T04:33:15;99433.06;;;7.35;nan
48089;BME280;33867;50.314;7.802;2023-03-25T04:36:35;99441.66;;;7.28;nan
48089;BME280;33867;50.314;7.802;2023-03-25T04:39:59;99445.47;;;7.26;nan
48089;BME280;33867;50.314;7.802;2023-03-25T04:43:19;99441.28;;;7.23;nan
48089;BME280;33867;50.314;7.802;2023-03-25T04:46:38;99430.69;;;7.22;nan
48089;BME280;33867;50.314;7.802;2023-03-25T04:49:57;99445.91;;;7.21;nan
48089;BME280;33867;50.314;7.802;2023-03-25T04:53:17;99443.22;;;7.21;nan
48089;BME280;33867;50.314;7.802;2023-03-25T04:56:36;99450.53;;;7.29;nan
48089;BME280;33867;50.314;7.802;2023-03-25T04:59:57;99453.91;;;7.31;nan
48089;BME280;33867;50.314;7.802;2023-03-25T05:03:17;99452.38;;;7.28;nan
48089;BME280;33867;50.314;7.802;2023-03-25T05:06:44;99443.66;;;7.26;nan
48089;BME280;33867;50.314;7.802;2023-03-25T05:10:03;99456.38;;;7.05;nan
48089;BME280;33867;50.314;7.802;2023-03-25T05:13:22;99448.50;;;6.94;nan
48089;BME280;33867;50.314;7.802;2023-03-25T05:16:42;99455.81;;;6.92;nan
48089;BME280;33867;50.314;7.802;2023-03-25T05:20:02;99459.34;;;6.83;nan
48089;BME280;33867;50.314;7.802;2023-03-25T05:23:23;99465.69;;;6.82;nan
48089;BME280;33867;50.314;7.802;2023-03-25T05:26:42;99463.00;;;6.82;nan
48089;BME280;33867;50.314;7.802;2023-03-25T05:30:02;99462.59;;;6.77;nan
48089;BME280;33867;50.314;7.802;2023-03-25T05:33:21;99463.44;;;6.67;nan
48089;BME280;33867;50.314;7.802;2023-03-25T05:36:40;99467.94;;;6.67;nan
48089;BME280;33867;50.314;7.802;2023-03-25T05:39:59;99470.63;;;6.77;nan
48089;BME280;33867;50.314;7.802;2023-03-25T05:43:22;99464.53;;;6.74;nan
48089;BME280;33867;50.314;7.802;2023-03-25T05:46:47;99472.56;;;6.84;nan
48089;BME280;33867;50.314;7.802;2023-03-25T05:50:06;99474.97;;;6.97;nan
48089;BME280;33867;50.314;7.802;2023-03-25T05:53:26;99477.19;;;7.21;nan
48089;BME280;33867;50.314;7.802;2023-03-25T05:56:49;99484.91;;;7.33;nan
48089;BME280;33867;50.314;7.802;2023-03-25T06:00:09;99486.88;;;7.31;nan
48089;BME280;33867;50.314;7.802;2023-03-25T06:03:33;99489.53;;;7.41;nan
48089;BME280;33867;50.314;7.802;2023-03-25T06:06:53;99490.38;;;7.42;nan
48089;BME280;33867;50.314;7.802;2023-03-25T06:10:13;99478.00;;;7.41;nan
48089;BME280;33867;50.314;7.802;2023-03-25T06:13:35;99473.34;;;7.43;nan
48089;BME280;33867;50.314;7.802;2023-03-25T06:16:56;99459.88;;;7.62;nan
48089;BME280;33867;50.314;7.802;2023-03-25T06:20:15;99472.09;;;7.74;nan
48089;BME280;33867;50.314;7.802;2023-03-25T06:23:34;99469.00;;;7.69;nan
48089;BME280;33867;50.314;7.802;2023-03-25T06:26:53;99478.34;;;7.65;nan
48089;BME280;33867;50.314;7.802;2023-03-25T06:30:18;99486.00;;;7.87;nan
48089;BME280;33867;50.314;7.802;2023-03-25T06:33:37;99485.00;;;8.16;nan
48089;BME280;33867;50.314;7.802;2023-03-25T06:36:56;99487.22;;;8.30;nan
48089;BME280;33867;50.314;7.802;2023-03-25T06:40:15;99481.53;;;8.43;nan
48089;BME280;33867;50.314;7.802;2023-03-25T06:43:36;99485.13;;;8.24;nan
48089;BME280;33867;50.314;7.802;2023-03-25T06:47:16;99484.44;;;8.22;nan
48089;BME280;33867;50.314;7.802;2023-03-25T06:50:36;99481.94;;;8.38;nan
48089;BME280;33867;50.314;7.802;2023-03-25T06:53:55;99469.47;;;8.47;nan
48089;BME280;33867;50.314;7.802;2023-03-25T06:57:14;99473.00;;;8.47;nan
48089;BME280;33867;50.314;7.802;2023-03-25T07:00:34;99469.72;;;8.71;nan
48089;BME280;33867;50.314;7.802;2023-03-25T07:03:54;99465.81;;;9.01;nan
48089;BME280;33867;50.314;7.802;2023-03-25T07:07:13;99472.56;;;9.57;nan
48089;BME280;33867;50.314;7.802;2023-03-25T07:10:31;99463.50;;;9.84;nan
48089;BME280;33867;50.314;7.802;2023-03-25T07:13:51;99461.88;;;10.42;nan
48089;BME280;33867;50.314;7.802;2023-03-25T07:17:11;99466.81;;;10.71;nan
48089;BME280;33867;50.314;7.802;2023-03-25T07:20:31;99458.56;;;10.72;nan
48089;BME280;33867;50.314;7.802;2023-03-25T07:23:51;99457.47;;;10.41;nan
48089;BME280;33867;50.314;7.802;2023-03-25T07:27:11;99468.09;;;10.42;nan
48089;BME280;33867;50.314;7.802;2023-03-25T07:30:30;99483.78;;;10.55;nan
48089;BME280;33867;50.314;7.802;2023-03-25T07:33:49;99482.88;;;10.38;nan
48089;BME280;33867;50.314;7.802;2023-03-25T07:37:09;99462.91;;;10.65;nan
48089;BME280;33867;50.314;7.802;2023-03-25T07:40:28;99466.31;;;10.83;nan
48089;BME280;33867;50.314;7.802;2023-03-25T07:43:47;99473.75;;;11.14;nan
48089;BME280;33867;50.314;7.802;2023-03-25T07:47:25;99467.84;;;11.27;nan
48089;BME280;33867;50.314;7.802;2023-03-25T07:50:43;99478.75;;;11.41;nan
48089;BME280;33867;50.314;7.802;2023-03-25T07:54:03;99474.06;;;11.11;nan
48089;BME280;33867;50.314;7.802;2023-03-25T07:57:23;99466.47;;;11.31;nan
48089;BME280;33867;50.314;7.802;2023-03-25T08:00:42;99474.69;;;11.62;nan
48089;BME280;33867;50.314;7.802;2023-03-25T08:04:02;99463.91;;;11.46;nan
48089;BME280;33867;50.314;7.802;2023-03-25T08:07:21;99460.78;;;11.26;nan
48089;BME280;33867;50.314;7.802;2023-03-25T08:10:41;99459.41;;;10.81;nan
48089;BME280;33867;50.314;7.802;2023-03-25T08:14:01;99465.28;;;10.68;nan
48089;BME280;33867;50.314;7.802;2023-03-25T08:17:21;99455.16;;;10.46;nan
48089;BME280;33867;50.314;7.802;2023-03-25T08:20:40;99468.63;;;10.54;nan
48089;BME280;33867;50.314;7.802;2023-03-25T08:23:59;99486.16;;;10.66;nan
48089;BME280;33867;50.314;7.802;2023-03-25T08:27:25;99484.66;;;10.96;nan
48089;BME280;33867;50.314;7.802;2023-03-25T08:30:45;99490.72;;;10.98;nan
48089;BME280;33867;50.314;7.802;2023-03-25T08:34:04;99501.16;;;10.85;nan
48089;BME280;33867;50.314;7.802;2023-03-25T08:37:24;99485.81;;;10.69;nan
48089;BME280;33867;50.314;7.802;2023-03-25T08:40:43;99518.41;;;10.42;nan
48089;BME280;33867;50.314;7.802;2023-03-25T08:44:02;99518.66;;;9.45;nan
48089;BME280;33867;50.314;7.802;2023-03-25T08:47:23;99542.19;;;9.25;nan
48089;BME280;33867;50.314;7.802;2023-03-25T08:50:42;99565.13;;;8.84;nan
48089;BME280;33867;50.314;7.802;2023-03-25T08:54:01;99566.22;;;8.45;nan
48089;BME280;33867;50.314;7.802;2023-03-25T08:57:20;99576.25;;;8.34;nan
48089;BME280;33867;50.314;7.802;2023-03-25T09:00:39;99538.03;;;8.32;nan
48089;BME280;33867;50.314;7.802;2023-03-25T09:03:58;99552.13;;;8.61;nan
48089;BME280;33867;50.314;7.802;2023-03-25T09:07:17;99530.84;;;8.77;nan
48089;BME280;33867;50.314;7.802;2023-03-25T09:10:37;99545.09;;;8.96;nan
48089;BME280;33867;50.314;7.802;2023-03-25T09:13:56;99548.41;;;9.25;nan
48089;BME280;33867;50.314;7.802;2023-03-25T09:17:21;99542.66;;;9.38;nan
48089;BME280;33867;50.314;7.802;2023-03-25T09:20:43;99540.97;;;9.37;nan
48089;BME280;33867;50.314;7.802;2023-03-25T09:24:07;99527.53;;;9.19;nan
48089;BME280;33867;50.314;7.802;2023-03-25T09:27:29;99549.09;;;9.09;nan
48089;BME280;33867;50.314;7.802;2023-03-25T09:30:48;99555.41;;;9.62;nan
48089;BME280;33867;50.314;7.802;2023-03-25T09:34:10;99541.75;;;10.07;nan
48089;BME280;33867;50.314;7.802;2023-03-25T09:37:29;99533.38;;;10.52;nan
48089;BME280;33867;50.314;7.802;2023-03-25T09:40:48;99519.66;;;10.80;nan
48089;BME280;33867;50.314;7.802;2023-03-25T09:47:40;99517.16;;;11.43;nan
48089;BME280;33867;50.314;7.802;2023-03-25T09:51:11;99548.19;;;12.27;nan
48089;BME280;33867;50.314;7.802;2023-03-25T09:54:35;99516.53;;;12.21;nan
48089;BME280;33867;50.314;7.802;2023-03-25T09:58:02;99516.44;;;12.38;nan
48089;BME280;33867;50.314;7.802;2023-03-25T10:01:45;99521.03;;;11.65;nan
48089;BME280;33867;50.314;7.802;2023-03-25T10:05:24;99526.59;;;11.72;nan
48089;BME280;33867;50.314;7.802;2023-03-25T10:12:46;99520.59;;;12.56;nan
48089;BME280;33867;50.314;7.802;2023-03-25T10:16:31;99522.38;;;12.64;nan
48089;BME280;33867;50.314;7.802;2023-03-25T10:20:05;99538.81;;;12.54;nan
48089;BME280;33867;50.314;7.802;2023-03-25T10:23:52;99538.88;;;12.38;nan
48089;BME280;33867;50.314;7.802;2023-03-25T10:30:52;99537.00;;;12.47;nan
48089;BME280;33867;50.314;7.802;2023-03-25T10:34:16;99537.69;;;13.03;nan
48089;BME280;33867;50.314;7.802;2023-03-25T10:37:38;99524.84;;;13.05;nan
48089;BME280;33867;50.314;7.802;2023-03-25T10:41:29;99513.63;;;13.77;nan
48089;BME280;33867;50.314;7.802;2023-03-25T10:44:49;99517.13;;;14.80;nan
48089;BME280;33867;50.314;7.802;2023-03-25T10:48:19;99510.16;;;15.85;nan
48089;BME280;33867;50.314;7.802;2023-03-25T10:51:39;99518.63;;;16.44;nan
48089;BME280;33867;50.314;7.802;2023-03-25T10:54:58;99509.91;;;17.16;nan
48089;BME280;33867;50.314;7.802;2023-03-25T10:58:18;99511.81;;;16.61;nan
48089;BME280;33867;50.314;7.802;2023-03-25T11:01:40;99500.28;;;17.07;nan
48089;BME280;33867;50.314;7.802;2023-03-25T11:05:03;99514.47;;;16.96;nan
48089;BME280;33867;50.314;7.802;2023-03-25T11:08:22;99501.31;;;17.13;nan
48089;BME280;33867;50.314;7.802;2023-03-25T11:11:43;99519.78;;;17.31;nan
48089;BME280;33867;50.314;7.802;2023-03-25T11:15:04;99528.72;;;16.98;nan
48089;BME280;33867;50.314;7.802;2023-03-25T11:18:27;99512.03;;;17.67;nan
48089;BME280;33867;50.314;7.802;2023-03-25T11:21:52;99524.69;;;18.53;nan
48089;BME280;33867;50.314;7.802;2023-03-25T11:25:28;99521.78;;;18.99;nan
48089;BME280;33867;50.314;7.802;2023-03-25T11:28:52;99533.31;;;18.43;nan
48089;BME280;33867;50.314;7.802;2023-03-25T11:32:13;99511.00;;;19.11;nan
48089;BME280;33867;50.314;7.802;2023-03-25T11:35:40;99510.50;;;18.89;nan
48089;BME280;33867;50.314;7.802;2023-03-25T11:39:16;99530.47;;;17.65;nan
48089;BME280;33867;50.314;7.802;2023-03-25T11:42:41;99535.47;;;17.22;nan
48089;BME280;33867;50.314;7.802;2023-03-25T11:46:15;99547.22;;;17.49;nan
48089;BME280;33867;50.314;7.802;2023-03-25T11:49:37;99522.03;;;17.07;nan
48089;BME280;33867;50.314;7.802;2023-03-25T11:52:59;99526.66;;;17.27;nan
48089;BME280;33867;50.314;7.802;2023-03-25T11:56:23;99525.47;;;17.89;nan
48089;BME280;33867;50.314;7.802;2023-03-25T12:03:46;99509.66;;;18.30;nan
48089;BME280;33867;50.314;7.802;2023-03-25T12:07:08;99526.84;;;18.95;nan
48089;BME280;33867;50.314;7.802;2023-03-25T12:10:53;99512.88;;;17.61;nan
48089;BME280;33867;50.314;7.802;2023-03-25T12:18:00;99486.56;;;18.39;nan
48089;BME280;33867;50.314;7.802;2023-03-25T12:25:20;99491.34;;;19.27;nan
48089;BME280;33867;50.314;7.802;2023-03-25T12:32:48;99530.72;;;16.70;nan
48089;BME280;33867;50.314;7.802;2023-03-25T12:47:38;99522.50;;;18.03;nan
48089;BME280;33867;50.314;7.802;2023-03-25T12:51:07;99512.63;;;18.80;nan
48089;BME280;33867;50.314;7.802;2023-03-25T12:58:00;99494.19;;;19.39;nan
48089;BME280;33867;50.314;7.802;2023-03-25T13:01:40;99485.53;;;20.17;nan
48089;BME280;33867;50.314;7.802;2023-03-25T13:05:14;99499.97;;;18.92;nan
48089;BME280;33867;50.314;7.802;2023-03-25T13:12:16;99501.19;;;17.80;nan
48089;BME280;33867;50.314;7.802;2023-03-25T13:16:04;99508.50;;;18.71;nan
48089;BME280;33867;50.314;7.802;2023-03-25T13:19:26;99497.25;;;18.48;nan
48089;BME280;33867;50.314;7.802;2023-03-25T13:22:54;99501.06;;;19.16;nan
48089;BME280;33867;50.314;7.802;2023-03-25T13:26:20;99484.91;;;19.96;nan
48089;BME280;33867;50.314;7.802;2023-03-25T13:29:50;99474.06;;;20.26;nan
48089;BME280;33867;50.314;7.802;2023-03-25T13:33:47;99467.47;;;20.52;nan
48089;BME280;33867;50.314;7.802;2023-03-25T13:40:36;99462.47;;;21.09;nan
48089;BME280;33867;50.314;7.802;2023-03-25T13:44:13;99458.56;;;20.57;nan
48089;BME280;33867;50.314;7.802;2023-03-25T13:47:55;99458.81;;;19.57;nan
48089;BME280;33867;50.314;7.802;2023-03-25T13:51:19;99459.91;;;19.18;nan
48089;BME280;33867;50.314;7.802;2023-03-25T13:54:59;99463.47;;;18.49;nan
48089;BME280;33867;50.314;7.802;2023-03-25T14:05:44;99444.00;;;19.15;nan
48089;BME280;33867;50.314;7.802;2023-03-25T14:09:23;99484.13;;;19.39;nan
48089;BME280;33867;50.314;7.802;2023-03-25T14:12:50;99449.47;;;19.40;nan
48089;BME280;33867;50.314;7.802;2023-03-25T14:16:15;99453.22;;;19.20;nan
48089;BME280;33867;50.314;7.802;2023-03-25T14:19:38;99446.53;;;18.85;nan
48089;BME280;33867;50.314;7.802;2023-03-25T14:23:05;99446.13;;;19.13;nan
48089;BME280;33867;50.314;7.802;2023-03-25T14:26:25;99461.75;;;18.03;nan
48089;BME280;33867;50.314;7.802;2023-03-25T14:29:59;99461.16;;;17.48;nan
48089;BME280;33867;50.314;7.802;2023-03-25T14:33:19;99503.88;;;16.66;nan
48089;BME280;33867;50.314;7.802;2023-03-25T14:40:27;99470.59;;;16.03;nan
48089;BME280;33867;50.314;7.802;2023-03-25T14:43:51;99474.38;;;16.50;nan
48089;BME280;33867;50.314;7.802;2023-03-25T14:50:40;99444.44;;;16.44;nan
48089;BME280;33867;50.314;7.802;2023-03-25T14:57:39;99437.91;;;17.52;nan
48089;BME280;33867;50.314;7.802;2023-03-25T15:01:31;99434.72;;;16.21;nan
48089;BME280;33867;50.314;7.802;2023-03-25T15:04:54;99433.63;;;15.68;nan
48089;BME280;33867;50.314;7.802;2023-03-25T15:08:15;99448.47;;;15.44;nan
48089;BME280;33867;50.314;7.802;2023-03-25T15:11:36;99444.06;;;16.47;nan
48089;BME280;33867;50.314;7.802;2023-03-25T15:15:22;99455.47;;;17.03;nan
48089;BME280;33867;50.314;7.802;2023-03-25T15:25:25;99444.94;;;15.22;nan
48089;BME280;33867;50.314;7.802;2023-03-25T15:36:31;99437.28;;;14.83;nan
48089;BME280;33867;50.314;7.802;2023-03-25T15:40:17;99454.31;;;14.77;nan
48089;BME280;33867;50.314;7.802;2023-03-25T15:54:53;99462.91;;;14.44;nan
48089;BME280;33867;50.314;7.802;2023-03-25T15:58:28;99441.44;;;14.28;nan
48089;BME280;33867;50.314;7.802;2023-03-25T16:01:50;99461.00;;;13.79;nan
48089;BME280;33867;50.314;7.802;2023-03-25T16:05:13;99472.00;;;13.78;nan
48089;BME280;33867;50.314;7.802;2023-03-25T16:08:42;99469.22;;;13.86;nan
48089;BME280;33867;50.314;7.802;2023-03-25T16:12:02;99465.19;;;13.67;nan
48089;BME280;33867;50.314;7.802;2023-03-25T16:15:28;99479.34;;;13.69;nan
48089;BME280;33867;50.314;7.802;2023-03-25T16:18:48;99484.97;;;13.30;nan
48089;BME280;33867;50.314;7.802;2023-03-25T16:22:16;99487.34;;;13.02;nan
48089;BME280;33867;50.314;7.802;2023-03-25T16:25:39;99494.34;;;12.96;nan
48089;BME280;33867;50.314;7.802;2023-03-25T16:29:28;99481.59;;;13.05;nan
48089;BME280;33867;50.314;7.802;2023-03-25T16:32:47;99500.22;;;13.00;nan
48089;BME280;33867;50.314;7.802;2023-03-25T16:36:14;99505.50;;;12.93;nan
48089;BME280;33867;50.314;7.802;2023-03-25T16:39:35;99491.50;;;12.89;nan
48089;BME280;33867;50.314;7.802;2023-03-25T16:43:03;99528.03;;;12.77;nan
48089;BME280;33867;50.314;7.802;2023-03-25T16:46:23;99494.59;;;12.55;nan
48089;BME280;33867;50.314;7.802;2023-03-25T16:49:46;99490.94;;;12.40;nan
48089;BME280;33867;50.314;7.802;2023-03-25T16:53:06;99483.59;;;12.26;nan
48089;BME280;33867;50.314;7.802;2023-03-25T16:56:32;99498.16;;;12.17;nan
48089;BME280;33867;50.314;7.802;2023-03-25T16:59:54;99501.94;;;11.99;nan
48089;BME280;33867;50.314;7.802;2023-03-25T17:03:16;99503.31;;;11.87;nan
48089;BME280;33867;50.314;7.802;2023-03-25T17:06:39;99506.00;;;11.71;nan
48089;BME280;33867;50.314;7.802;2023-03-25T17:09:59;99507.72;;;11.64;nan
48089;BME280;33867;50.314;7.802;2023-03-25T17:13:23;99515.81;;;11.48;nan
48089;BME280;33867;50.314;7.802;2023-03-25T17:16:44;99510.75;;;11.36;nan
48089;BME280;33867;50.314;7.802;2023-03-25T17:20:51;99516.84;;;11.22;nan
48089;BME280;33867;50.314;7.802;2023-03-25T17:23:45;99528.63;;;11.05;nan
48089;BME280;33867;50.314;7.802;2023-03-25T17:27:14;99536.69;;;10.97;nan
48089;BME280;33867;50.314;7.802;2023-03-25T17:30:42;99550.13;;;10.89;nan
48089;BME280;33867;50.314;7.802;2023-03-25T17:34:23;99556.84;;;10.76;nan
48089;BME280;33867;50.314;7.802;2023-03-25T17:37:46;99537.69;;;10.79;nan
48089;BME280;33867;50.314;7.802;2023-03-25T17:41:08;99560.22;;;10.78;nan
48089;BME280;33867;50.314;7.802;2023-03-25T17:44:32;99565.06;;;10.75;nan
48089;BME280;33867;50.314;7.802;2023-03-25T17:47:52;99559.81;;;10.65;nan
48089;BME280;33867;50.314;7.802;2023-03-25T17:51:12;99543.31;;;10.52;nan
48089;BME280;33867;50.314;7.802;2023-03-25T17:54:32;99557.75;;;10.43;nan
48089;BME280;33867;50.314;7.802;2023-03-25T17:57:51;99548.63;;;10.36;nan
48089;BME280;33867;50.314;7.802;2023-03-25T18:01:11;99566.56;;;10.27;nan
48089;BME280;33867;50.314;7.802;2023-03-25T18:04:30;99566.16;;;10.14;nan
48089;BME280;33867;50.314;7.802;2023-03-25T18:07:49;99573.19;;;10.07;nan
48089;BME280;33867;50.314;7.802;2023-03-25T18:11:09;99580.34;;;9.98;nan
48089;BME280;33867;50.314;7.802;2023-03-25T18:14:29;99590.44;;;9.96;nan
48089;BME280;33867;50.314;7.802;2023-03-25T18:17:48;99586.53;;;9.90;nan
48089;BME280;33867;50.314;7.802;2023-03-25T18:21:11;99584.47;;;9.84;nan
48089;BME280;33867;50.314;7.802;2023-03-25T18:24:31;99601.38;;;9.77;nan
48089;BME280;33867;50.314;7.802;2023-03-25T18:27:54;99619.00;;;9.71;nan
48089;BME280;33867;50.314;7.802;2023-03-25T18:31:15;99610.78;;;9.73;nan
48089;BME280;33867;50.314;7.802;2023-03-25T18:34:35;99612.47;;;9.74;nan
48089;BME280;33867;50.314;7.802;2023-03-25T18:37:54;99625.22;;;9.72;nan
48089;BME280;33867;50.314;7.802;2023-03-25T18:41:14;99622.81;;;9.68;nan
48089;BME280;33867;50.314;7.802;2023-03-25T18:44:34;99626.97;;;9.63;nan
48089;BME280;33867;50.314;7.802;2023-03-25T18:47:53;99633.81;;;9.57;nan
48089;BME280;33867;50.314;7.802;2023-03-25T18:51:13;99641.97;;;9.48;nan
48089;BME280;33867;50.314;7.802;2023-03-25T18:54:33;99647.63;;;9.45;nan
48089;BME280;33867;50.314;7.802;2023-03-25T18:57:53;99641.72;;;9.41;nan
48089;BME280;33867;50.314;7.802;2023-03-25T19:01:12;99641.38;;;9.36;nan
48089;BME280;33867;50.314;7.802;2023-03-25T19:04:33;99646.66;;;9.28;nan
48089;BME280;33867;50.314;7.802;2023-03-25T19:07:54;99629.28;;;9.22;nan
48089;BME280;33867;50.314;7.802;2023-03-25T19:11:13;99627.38;;;9.15;nan
48089;BME280;33867;50.314;7.802;2023-03-25T19:14:34;99630.97;;;9.05;nan
48089;BME280;33867;50.314;7.802;2023-03-25T19:17:55;99634.50;;;9.06;nan
48089;BME280;33867;50.314;7.802;2023-03-25T19:21:17;99643.03;;;9.01;nan
48089;BME280;33867;50.314;7.802;2023-03-25T19:24:36;99626.66;;;8.95;nan
48089;BME280;33867;50.314;7.802;2023-03-25T19:27:56;99633.03;;;8.94;nan
48089;BME280;33867;50.314;7.802;2023-03-25T19:31:15;99654.97;;;8.89;nan
48089;BME280;33867;50.314;7.802;2023-03-25T19:34:34;99643.66;;;8.86;nan
48089;BME280;33867;50.314;7.802;2023-03-25T19:37:53;99643.50;;;8.87;nan
48089;BME280;33867;50.314;7.802;2023-03-25T19:41:14;99644.22;;;8.89;nan
48089;BME280;33867;50.314;7.802;2023-03-25T19:44:34;99647.50;;;8.83;nan
48089;BME280;33867;50.314;7.802;2023-03-25T19:48:06;99642.75;;;8.77;nan
48089;BME280;33867;50.314;7.802;2023-03-25T19:51:25;99647.00;;;8.70;nan
48089;BME280;33867;50.314;7.802;2023-03-25T19:54:44;99644.63;;;8.67;nan
48089;BME280;33867;50.314;7.802;2023-03-25T19:58:04;99639.94;;;8.69;nan
48089;BME280;33867;50.314;7.802;2023-03-25T20:01:25;99647.31;;;8.67;nan
48089;BME280;33867;50.314;7.802;2023-03-25T20:04:44;99638.56;;;8.65;nan
48089;BME280;33867;50.314;7.802;2023-03-25T20:08:04;99637.47;;;8.58;nan
48089;BME280;33867;50.314;7.802;2023-03-25T20:11:23;99640.72;;;8.52;nan
48089;BME280;33867;50.314;7.802;2023-03-25T20:14:42;99630.56;;;8.55;nan
48089;BME280;33867;50.314;7.802;2023-03-25T20:18:01;99633.25;;;8.55;nan
48089;BME280;33867;50.314;7.802;2023-03-25T20:21:21;99628.72;;;8.56;nan
48089;BME280;33867;50.314;7.802;2023-03-25T20:24:42;99625.88;;;8.57;nan
48089;BME280;33867;50.314;7.802;2023-03-25T20:28:01;99618.53;;;8.59;nan
48089;BME280;33867;50.314;7.802;2023-03-25T20:31:22;99623.78;;;8.51;nan
48089;BME280;33867;50.314;7.802;2023-03-25T20:34:41;99621.25;;;8.49;nan
48089;BME280;33867;50.314;7.802;2023-03-25T20:38:00;99616.03;;;8.48;nan